Data for 09/15/2010

Time Sea-Level Adjusted Pressure Absolute Pressure Temperature Relative Humidity Dew Point   
(mb) (inHg) (mb) (inHg) (C) (F) (%) (C) (F)
00:05 1021 30.15 850 25.1 10 49.9 80 6.7 44
00:10 1021 30.15 850 25.1 10.2 50.3 78 6.6 43.8
00:15 1021 30.15 850 25.1 10.3 50.5 78 6.7 44
00:20 1021 30.15 850 25.1 10.2 50.3 78 6.4 43.6
00:25 1021 30.15 850 25.1 10.1 50.2 78 6.5 43.7
00:30 1021 30.15 850 25.1 10.1 50.2 77 6.3 43.4
00:35 1021 30.15 850 25.1 10.1 50.2 79 6.5 43.8
00:40 1021 30.15 850 25.1 10.1 50.1 80 6.8 44.3
00:45 1021 30.15 850 25.1 9.7 49.5 84 7.2 44.9
00:50 1021 30.15 850 25.1 9.5 49.1 84 7 44.6
00:55 1021 30.15 850 25.1 9.5 49.1 85 7.1 44.9
01:00 1021 30.15 850 25.1 9.5 49.1 86 7.2 45
01:05 1021 30.15 850 25.1 9.5 49 85 7.1 44.8
01:10 1021 30.15 850 25.1 9.4 48.9 86 7.2 45
01:15 1021 30.15 850 25.1 9.2 48.5 87 7.2 44.9
01:20 1021 30.15 850 25.1 9 48.3 89 7.2 45
01:25 1021 30.15 850 25.1 8.8 47.9 88 7 44.6
01:30 1021 30.15 850 25.1 9 48.1 87 6.9 44.4
01:35 1021 30.15 850 25.1 9.1 48.4 86 6.9 44.5
01:40 1021 30.15 850 25.1 9.2 48.5 87 7.1 44.8
01:45 1021 30.15 850 25.1 9.2 48.6 88 7.3 45.1
01:50 1021 30.15 850 25.1 9 48.2 88 7.2 44.9
01:55 1021 30.15 850 25.1 8.9 48 88 7 44.5
02:00 1021 30.15 850 25.1 8.8 47.8 88 6.9 44.5
02:05 1021 30.15 850 25.1 8.6 47.4 88 6.7 44.1
02:10 1021 30.15 850 25.1 8.5 47.3 88 6.7 44
02:15 1021 30.15 850 25.1 8.4 47.2 88 6.5 43.8
02:20 1021 30.15 850 25.1 8.5 47.3 88 6.6 43.9
02:25 1021 30.15 850 25.1 8.4 47.2 89 6.7 44
02:30 1021 30.15 850 25.1 8.2 46.8 90 6.6 44
02:35 1021 30.15 850 25.1 8.1 46.5 90 6.6 43.8
02:40 1021 30.15 850 25.1 7.9 46.2 90 6.4 43.6
02:45 1021 30.15 850 25.1 8 46.4 90 6.5 43.8
02:50 1021 30.15 850 25.1 8.2 46.8 90 6.6 43.9
02:55 1021 30.15 850 25.1 8.4 47.1 87 6.4 43.6
03:00 1021 30.15 850 25.1 8.6 47.4 87 6.6 43.8
03:05 1021 30.15 850 25.1 8.4 47 88 6.6 43.8
03:10 1021 30.15 851 25.13 8.2 46.7 87 6.2 43.1
03:15 1021 30.15 851 25.13 8.3 46.9 85 5.9 42.6
03:20 1022 30.18 851 25.13 8.4 47.1 85 6.1 42.9
03:25 1022 30.18 851 25.13 8.5 47.2 83 5.8 42.4
03:30 1022 30.18 851 25.13 8.6 47.6 83 6 42.7
03:35 1022 30.18 851 25.13 8.6 47.5 84 6 42.8
03:40 1022 30.18 851 25.13 8.7 47.6 84 6.1 43
03:45 1022 30.18 851 25.13 8.7 47.6 84 6.1 43
03:50 1022 30.18 851 25.13 8.6 47.5 84 6.1 42.9
03:55 1022 30.18 851 25.13 8.6 47.5 84 6 42.8
04:00 1022 30.18 851 25.13 8.5 47.3 84 6 42.8
04:05 1022 30.18 851 25.13 8.4 47.1 85 6 42.9
04:10 1022 30.18 851 25.13 8.4 47.2 85 6 42.9
04:15 1022 30.18 851 25.13 8.6 47.4 84 5.9 42.7
04:20 1022 30.18 851 25.13 8.8 47.8 82 5.8 42.5
04:25 1022 30.18 851 25.13 8.8 47.9 81 5.8 42.5
04:30 1022 30.18 851 25.13 8.9 47.9 82 5.9 42.7
04:35 1022 30.18 851 25.13 8.8 47.8 83 6 42.8
04:40 1022 30.18 851 25.13 8.6 47.5 84 6 42.8
04:45 1022 30.18 851 25.13 8.5 47.3 84 6 42.8
04:50 1022 30.18 851 25.13 8.4 47 85 5.9 42.7
04:55 1022 30.18 851 25.13 8.3 47 84 5.8 42.4
05:00 1022 30.18 851 25.13 8.3 47 85 6 42.8
05:05 1022 30.18 851 25.13 8.2 46.8 85 5.9 42.6
05:10 1022 30.18 851 25.13 8.1 46.6 86 5.9 42.6
05:15 1022 30.18 851 25.13 8 46.4 86 5.8 42.4
05:20 1022 30.18 851 25.13 7.9 46.2 86 5.8 42.4
05:25 1022 30.18 851 25.13 7.8 46 86 5.6 42.1
05:30 1022 30.18 851 25.13 7.8 46 86 5.5 42
05:35 1022 30.18 851 25.13 7.8 46 85 5.4 41.8
05:40 1022 30.18 851 25.13 7.9 46.2 84 5.4 41.7
05:45 1022 30.18 851 25.13 8 46.5 84 5.4 41.8
05:50 1022 30.18 851 25.13 7.9 46.3 84 5.3 41.6
05:55 1022 30.18 851 25.13 7.7 45.9 85 5.3 41.6
06:00 1022 30.18 851 25.13 7.4 45.3 86 5.2 41.4
06:05 1022 30.18 851 25.13 7.4 45.3 86 5.3 41.5
06:10 1022 30.18 851 25.13 7.3 45.1 86 5.1 41.2
06:15 1022 30.18 851 25.13 7.1 44.7 87 5.1 41.2
06:20 1022 30.18 851 25.13 6.8 44.3 88 5 41
06:25 1022 30.18 851 25.13 6.6 43.9 89 4.9 40.9
06:30 1022 30.18 851 25.13 6.5 43.7 89 4.8 40.6
06:35 1022 30.18 851 25.13 6.3 43.4 90 4.7 40.5
06:40 1022 30.18 851 25.13 6.3 43.3 90 4.7 40.4
06:45 1022 30.18 851 25.13 6.3 43.4 89 4.7 40.5
06:50 1022 30.18 851 25.13 6.3 43.3 89 4.7 40.4
06:55 1022 30.18 851 25.13 6.3 43.3 89 4.6 40.4
07:00 1022 30.18 851 25.13 6.2 43.1 89 4.6 40.2
07:05 1022 30.18 851 25.13 6.1 43 89 4.5 40
07:10 1022 30.18 851 25.13 6.3 43.3 89 4.5 40.1
07:15 1022 30.18 851 25.13 6.3 43.3 89 4.6 40.2
07:20 1022 30.18 851 25.13 6.4 43.6 88 4.6 40.3
07:25 1022 30.18 851 25.13 6.7 44 86 4.6 40.2
07:30 1022 30.18 851 25.13 6.7 44.1 86 4.6 40.2
07:35 1022 30.18 851 25.13 7.1 44.8 84 4.6 40.3
07:40 1022 30.18 852 25.16 7.3 45.1 83 4.7 40.4
07:45 1022 30.18 852 25.16 7.4 45.2 84 4.8 40.6
07:50 1022 30.18 852 25.16 7.3 45.1 83 4.6 40.2
07:55 1022 30.18 852 25.16 7.5 45.5 83 4.8 40.6
08:00 1022 30.18 852 25.16 7.9 46.2 81 4.9 40.8
08:05 1022 30.18 852 25.16 7.8 46.1 82 5 41
08:10 1022 30.18 852 25.16 8 46.5 81 5 41.1
08:15 1023 30.21 852 25.16 8.1 46.7 82 5.2 41.4
08:20 1023 30.21 852 25.16 8.5 47.2 81 5.4 41.7
08:25 1022 30.18 852 25.16 8.7 47.6 81 5.6 42.1
08:30 1022 30.18 852 25.16 8.6 47.6 80 5.3 41.6
08:35 1022 30.18 852 25.16 9.1 48.4 79 5.7 42.3
08:40 1023 30.21 852 25.16 9.7 49.4 77 5.9 42.6
08:45 1023 30.21 852 25.16 9.8 49.6 78 6.2 43.1
08:50 1023 30.21 852 25.16 10 50.1 78 6.4 43.6
08:55 1023 30.21 852 25.16 10.5 50.8 76 6.4 43.6
09:00 1023 30.21 852 25.16 10.5 50.9 77 6.7 44
09:05 1023 30.21 852 25.16 10.5 50.8 77 6.6 43.9
09:10 1023 30.21 852 25.16 10.7 51.3 76 6.7 44
09:15 1023 30.21 852 25.16 11.1 51.9 75 6.9 44.4
09:20 1022 30.18 852 25.16 11.6 52.9 74 7.1 44.7
09:25 1022 30.18 852 25.16 11.9 53.5 72 7 44.7
09:30 1022 30.18 852 25.16 12.6 54.6 71 7.5 45.5
09:35 1022 30.18 852 25.16 12.9 55.2 70 7.5 45.5
09:40 1022 30.18 852 25.16 13.2 55.7 67 7.3 45.2
09:45 1022 30.18 852 25.16 13 55.3 68 7.2 44.9
09:50 1022 30.18 852 25.16 13.4 56.2 67 7.6 45.6
09:55 1022 30.18 852 25.16 13.3 56 68 7.7 45.8
10:00 1022 30.18 852 25.16 13.6 56.5 64 6.9 44.4
10:05 1023 30.21 852 25.16 14.7 58.4 62 7.6 45.6
10:10 1023 30.21 852 25.16 14.5 58.1 63 7.6 45.7
10:15 1023 30.21 852 25.16 13.5 56.3 64 6.9 44.4
10:20 1023 30.21 852 25.16 13.1 55.6 66 7 44.6
10:25 1023 30.21 852 25.16 13.6 56.4 64 6.8 44.3
10:30 1023 30.21 852 25.16 14.4 57.9 64 7.8 46
10:35 1023 30.21 852 25.16 13.7 56.7 64 7 44.6
10:40 1023 30.21 852 25.16 13.7 56.7 60 6.3 43.3
10:45 1023 30.21 852 25.16 14.9 58.9 58 6.9 44.4
10:50 1023 30.21 852 25.16 15.4 59.7 59 7.5 45.5
10:55 1023 30.21 852 25.16 15.8 60.4 57 7.4 45.4
11:00 1023 30.21 852 25.16 15.7 60.3 60 8 46.4
11:05 1023 30.21 852 25.16 15.2 59.3 59 7.3 45.2
11:10 1022 30.18 852 25.16 15.1 59.1 62 7.9 46.3
11:15 1022 30.18 852 25.16 14.8 58.6 61 7.3 45.2
11:20 1022 30.18 852 25.16 15.8 60.5 57 7.4 45.3
11:25 1022 30.18 851 25.13 15.4 59.6 62 8.2 46.7
11:30 1022 30.18 851 25.13 15.2 59.4 59 7.4 45.4
11:35 1022 30.18 851 25.13 15.1 59.1 59 7.1 44.8
11:40 1022 30.18 851 25.13 16.2 61.1 55 7.3 45.1
11:45 1022 30.18 851 25.13 16.9 62.4 53 7.4 45.3
11:50 1022 30.18 851 25.13 16.5 61.6 54 7.2 44.9
11:55 1022 30.18 851 25.13 16 60.9 50 5.8 42.4
12:00 1022 30.18 851 25.13 15.9 60.7 51 5.8 42.5
12:05 1022 30.18 851 25.13 16.5 61.6 52 6.6 43.9
12:10 1022 30.18 851 25.13 17.2 62.9 50 6.7 44
12:15 1022 30.18 851 25.13 18.5 65.2 46 6.6 43.9
12:20 1022 30.18 851 25.13 18.1 64.7 47 6.7 44.1
12:25 1022 30.18 851 25.13 16.7 62 50 6.4 43.5
12:30 1022 30.18 851 25.13 16.4 61.6 49 5.9 42.6
12:35 1022 30.18 851 25.13 17 62.5 47 5.6 42.1
12:40 1022 30.18 851 25.13 17 62.7 47 5.8 42.5
12:45 1021 30.15 851 25.13 17.5 63.5 43 4.8 40.7
12:50 1021 30.15 851 25.13 17.4 63.3 45 5.3 41.5
12:55 1021 30.15 851 25.13 17.7 63.8 42 4.6 40.2
13:00 1021 30.15 851 25.13 18.3 65 43 5.6 42.1
13:05 1021 30.15 850 25.1 17.1 62.7 46 5.4 41.7
13:10 1021 30.15 850 25.1 17.7 63.9 44 5.3 41.6
13:15 1021 30.15 850 25.1 18.2 64.8 44 5.8 42.4
13:20 1021 30.15 850 25.1 17.6 63.7 43 4.9 40.8
13:25 1021 30.15 850 25.1 18.1 64.6 41 4.9 40.8
13:30 1021 30.15 850 25.1 18.6 65.5 38 4.2 39.6
13:35 1021 30.15 850 25.1 19.1 66.4 38 4.7 40.5
13:40 1021 30.15 850 25.1 19.6 67.2 38 5.2 41.3
13:45 1021 30.15 850 25.1 19.7 67.4 38 5.1 41.2
13:50 1021 30.15 850 25.1 19.6 67.2 40 5.7 42.3
13:55 1021 30.15 850 25.1 19.8 67.6 37 4.8 40.6
14:00 1021 30.15 850 25.1 19.6 67.2 38 4.9 40.7
14:05 1021 30.15 850 25.1 20.4 68.6 36 5.1 41.1
14:10 1021 30.15 850 25.1 19.5 67.1 42 6.4 43.4
14:15 1021 30.15 850 25.1 19.5 67.2 39 5.5 41.9
14:20 1021 30.15 850 25.1 20.2 68.3 38 5.5 42
14:25 1020 30.12 850 25.1 20.2 68.4 38 5.8 42.4
14:30 1020 30.12 850 25.1 19.5 67 41 6 42.9
14:35 1020 30.12 850 25.1 18.3 65 42 5.2 41.4
14:40 1020 30.12 850 25.1 18.8 65.9 39 4.8 40.7
14:45 1020 30.12 850 25.1 19.1 66.4 41 5.8 42.5
14:50 1020 30.12 850 25.1 18.5 65.3 42 5.6 42
14:55 1020 30.12 850 25.1 19.3 66.8 39 5.1 41.1
15:00 1020 30.12 850 25.1 20 67.9 37 4.9 40.8
15:05 1020 30.12 850 25.1 20 68 39 5.7 42.3
15:10 1020 30.12 850 25.1 20.3 68.5 37 5.3 41.6
15:15 1020 30.12 850 25.1 20.5 68.8 37 5.3 41.6
15:20 1020 30.12 850 25.1 20.3 68.6 37 5.3 41.5
15:25 1020 30.12 850 25.1 20.3 68.5 38 5.7 42.2
15:30 1020 30.12 850 25.1 20.2 68.3 39 6 42.8
15:35 1020 30.12 850 25.1 20 68 39 5.8 42.5
15:40 1020 30.12 849 25.07 20.3 68.5 37 5.5 41.8
15:45 1020 30.12 849 25.07 20.3 68.6 40 6.5 43.7
15:50 1020 30.12 849 25.07 20.2 68.4 39 5.9 42.6
15:55 1020 30.12 849 25.07 21.3 70.3 36 5.6 42.1
16:00 1020 30.12 849 25.07 21 69.8 37 5.9 42.6
16:05 1020 30.12 849 25.07 21 69.7 36 5.6 42.1
16:10 1020 30.12 849 25.07 21.1 69.9 36 5.7 42.2
16:15 1020 30.12 849 25.07 20.5 68.9 39 6.2 43.2
16:20 1020 30.12 849 25.07 20.4 68.8 39 6 42.8
16:25 1020 30.12 849 25.07 20.7 69.3 35 4.8 40.7
16:30 1020 30.12 849 25.07 21.7 71 34 5.2 41.4
16:35 1020 30.12 849 25.07 22.2 72 33 5.3 41.6
16:40 1020 30.12 849 25.07 22.3 72.1 34 5.8 42.4
16:45 1020 30.12 849 25.07 21.2 70.2 36 5.9 42.6
16:50 1020 30.12 849 25.07 20.1 68.1 40 6.1 43
16:55 1020 30.12 849 25.07 19.8 67.6 40 5.8 42.5
17:00 1020 30.12 849 25.07 19.1 66.4 42 6 42.8
17:05 1020 30.12 849 25.07 19.4 67 39 5.5 41.8
17:10 1020 30.12 849 25.07 19.7 67.4 40 5.7 42.2
17:15 1020 30.12 849 25.07 19.5 67.1 41 5.9 42.7
17:20 1020 30.12 849 25.07 18.9 66.1 42 5.9 42.6
17:25 1020 30.12 849 25.07 18.8 65.8 43 6.2 43.2
17:30 1020 30.12 849 25.07 19.2 66.5 42 6.2 43.1
17:35 1020 30.12 849 25.07 19.5 67.1 43 6.6 43.8
17:40 1020 30.12 849 25.07 19.6 67.2 43 6.6 44
17:45 1020 30.12 849 25.07 19.9 67.7 41 6.3 43.3
17:50 1020 30.12 849 25.07 20.2 68.3 40 6.1 43.1
17:55 1020 30.12 849 25.07 20 68 39 5.9 42.7
18:00 1020 30.12 849 25.07 19.9 67.8 40 6.1 43
18:05 1020 30.12 849 25.07 19.6 67.3 42 6.5 43.8
18:10 1020 30.12 849 25.07 19.4 66.9 43 6.6 43.8
18:15 1020 30.12 849 25.07 19.3 66.7 43 6.7 44
18:20 1020 30.12 849 25.07 19.2 66.6 45 7.3 45.1
18:25 1020 30.12 849 25.07 19.1 66.4 48 8 46.4
18:30 1020 30.12 849 25.07 18.7 65.6 51 8.4 47
18:35 1019 30.09 849 25.07 18.6 65.5 51 8.3 46.9
18:40 1019 30.09 849 25.07 18.6 65.4 48 7.6 45.7
18:45 1020 30.12 849 25.07 18.5 65.3 49 7.9 46.1
18:50 1020 30.12 849 25.07 18.5 65.4 48 7.6 45.7
18:55 1020 30.12 849 25.07 18.5 65.2 48 7.4 45.3
19:00 1019 30.09 849 25.07 18.2 64.8 49 7.6 45.6
19:05 1019 30.09 849 25.07 18.1 64.5 52 8.1 46.6
19:10 1019 30.09 849 25.07 18 64.5 47 6.8 44.2
19:15 1019 30.09 849 25.07 18 64.3 48 7 44.7
19:20 1019 30.09 849 25.07 17.9 64.1 48 6.7 44
19:25 1019 30.09 849 25.07 17.7 63.9 48 6.8 44.3
19:30 1019 30.09 849 25.07 17.6 63.6 51 7.4 45.3
19:35 1019 30.09 849 25.07 17.2 63 57 8.6 47.5
19:40 1019 30.09 849 25.07 16.7 62.1 61 9.3 48.7
19:45 1019 30.09 849 25.07 16.3 61.3 61 8.7 47.7
19:50 1019 30.09 849 25.07 16 60.9 60 8.5 47.2
19:55 1019 30.09 849 25.07 15.8 60.4 63 8.7 47.7
20:00 1019 30.09 849 25.07 15.7 60.2 55 6.9 44.4
20:05 1019 30.09 849 25.07 15.4 59.8 56 6.8 44.3
20:10 1019 30.09 849 25.07 15.2 59.4 58 7 44.6
20:15 1019 30.09 849 25.07 14.9 58.8 56 6.2 43.2
20:20 1019 30.09 849 25.07 14.3 57.8 62 7.2 44.9
20:25 1019 30.09 849 25.07 13.6 56.5 69 8.1 46.5
20:30 1019 30.09 849 25.07 13 55.5 70 7.8 46
20:35 1019 30.09 849 25.07 12.8 55.1 64 6.3 43.3
20:40 1019 30.09 849 25.07 13 55.4 61 5.8 42.5
20:45 1019 30.09 849 25.07 13.2 55.8 56 4.7 40.4
20:50 1019 30.09 849 25.07 13.5 56.3 54 4.4 40
20:55 1019 30.09 849 25.07 13.7 56.7 56 5.1 41.1
21:00 1019 30.09 849 25.07 13.4 56.2 51 3.6 38.5
21:05 1019 30.09 849 25.07 13.3 55.9 55 4.6 40.3
21:10 1019 30.09 849 25.07 12.7 54.9 57 4.5 40
21:15 1019 30.09 849 25.07 12.4 54.3 57 4.2 39.5
21:20 1019 30.09 849 25.07 12.4 54.3 58 4.5 40
21:25 1019 30.09 849 25.07 12.4 54.2 58 4.3 39.7
21:30 1019 30.09 849 25.07 12.6 54.7 55 3.9 39
21:35 1019 30.09 849 25.07 13 55.3 55 4.3 39.7
21:40 1019 30.09 849 25.07 12.7 54.9 55 3.9 39
21:45 1019 30.09 849 25.07 12.7 54.8 57 4.5 40
21:50 1019 30.09 849 25.07 12.4 54.4 58 4.4 39.8
21:55 1019 30.09 848 25.04 12.3 54.2 59 4.5 40.1
22:00 1019 30.09 848 25.04 12.4 54.3 56 3.9 39.1
22:05 1019 30.09 848 25.04 12.4 54.3 57 4.3 39.7
22:10 1019 30.09 848 25.04 12.3 54.1 56 3.9 39
22:15 1019 30.09 848 25.04 12.4 54.2 54 3.5 38.2
22:20 1019 30.09 848 25.04 12.4 54.3 55 3.8 38.8
22:25 1019 30.09 848 25.04 12.2 54 56 3.8 38.8
22:30 1019 30.09 848 25.04 12 53.7 56 3.6 38.4
22:35 1019 30.09 848 25.04 11.9 53.4 57 3.7 38.6
22:40 1019 30.09 848 25.04 11.6 53 59 3.9 39
22:45 1019 30.09 848 25.04 11.5 52.7 59 3.9 39.1
22:50 1019 30.09 848 25.04 11.6 52.9 59 3.9 39
22:55 1019 30.09 848 25.04 11.6 52.9 58 3.8 38.8
23:00 1019 30.09 848 25.04 11.7 53.1 57 3.7 38.6
23:05 1019 30.09 848 25.04 11.9 53.3 56 3.5 38.2
23:10 1019 30.09 848 25.04 11.8 53.2 56 3.5 38.2
23:15 1019 30.09 848 25.04 11.8 53.2 55 3.2 37.7
23:20 1019 30.09 848 25.04 11.9 53.4 55 3.2 37.7
23:25 1019 30.09 848 25.04 11.6 52.9 56 3.3 37.9
23:30 1019 30.09 848 25.04 11.2 52.1 56 2.9 37.1
23:35 1019 30.09 848 25.04 11.2 52.2 56 2.8 37.1
23:40 1019 30.09 848 25.04 11.5 52.7 54 2.7 36.8
23:45 1019 30.09 848 25.04 11.7 53 54 2.7 36.9
23:50 1019 30.09 848 25.04 11.5 52.7 54 2.6 36.6
23:55 1019 30.09 848 25.04 11.4 52.5 54 2.6 36.7
24:00 1019 30.09 848 25.04 11.3 52.3 55 2.6 36.7